sensor_id;sensor_type;location;lat;lon;timestamp;temperature;humidity
76996;DHT22;65929;49.062;10.338;2023-12-28T00:00:05;0.40;88.80
76996;DHT22;65929;49.062;10.338;2023-12-28T00:01:06;0.40;89.00
76996;DHT22;65929;49.062;10.338;2023-12-28T00:02:07;0.40;89.10
76996;DHT22;65929;49.062;10.338;2023-12-28T00:03:08;0.40;89.00
76996;DHT22;65929;49.062;10.338;2023-12-28T00:04:10;0.40;89.00
76996;DHT22;65929;49.062;10.338;2023-12-28T00:05:11;0.40;89.00
76996;DHT22;65929;49.062;10.338;2023-12-28T00:06:12;0.40;89.00
76996;DHT22;65929;49.062;10.338;2023-12-28T00:07:13;0.40;89.10
76996;DHT22;65929;49.062;10.338;2023-12-28T00:08:14;0.40;89.20
76996;DHT22;65929;49.062;10.338;2023-12-28T00:09:15;0.40;89.00
76996;DHT22;65929;49.062;10.338;2023-12-28T00:10:16;0.40;89.00
76996;DHT22;65929;49.062;10.338;2023-12-28T00:11:17;0.40;89.00
76996;DHT22;65929;49.062;10.338;2023-12-28T00:12:18;0.30;89.00
76996;DHT22;65929;49.062;10.338;2023-12-28T00:13:19;0.30;89.00
76996;DHT22;65929;49.062;10.338;2023-12-28T00:14:19;0.30;89.20
76996;DHT22;65929;49.062;10.338;2023-12-28T00:15:21;0.30;89.30
76996;DHT22;65929;49.062;10.338;2023-12-28T00:16:22;0.30;89.20
76996;DHT22;65929;49.062;10.338;2023-12-28T00:17:23;0.30;89.40
76996;DHT22;65929;49.062;10.338;2023-12-28T00:18:24;0.40;89.30
76996;DHT22;65929;49.062;10.338;2023-12-28T00:20:29;0.50;89.00
76996;DHT22;65929;49.062;10.338;2023-12-28T00:21:30;0.50;88.60
76996;DHT22;65929;49.062;10.338;2023-12-28T00:22:31;0.50;88.50
76996;DHT22;65929;49.062;10.338;2023-12-28T00:23:32;0.40;88.40
76996;DHT22;65929;49.062;10.338;2023-12-28T00:24:33;0.40;88.40
76996;DHT22;65929;49.062;10.338;2023-12-28T00:25:34;0.40;88.40
76996;DHT22;65929;49.062;10.338;2023-12-28T00:26:35;0.40;88.40
76996;DHT22;65929;49.062;10.338;2023-12-28T00:27:36;0.30;88.30
76996;DHT22;65929;49.062;10.338;2023-12-28T00:28:38;0.30;88.30
76996;DHT22;65929;49.062;10.338;2023-12-28T00:29:39;0.30;88.40
76996;DHT22;65929;49.062;10.338;2023-12-28T00:30:41;0.30;88.50
76996;DHT22;65929;49.062;10.338;2023-12-28T00:31:45;0.30;88.50
76996;DHT22;65929;49.062;10.338;2023-12-28T00:32:48;0.40;88.30
76996;DHT22;65929;49.062;10.338;2023-12-28T00:33:49;0.40;88.20
76996;DHT22;65929;49.062;10.338;2023-12-28T00:34:53;0.40;88.00
76996;DHT22;65929;49.062;10.338;2023-12-28T00:35:56;0.40;88.00
76996;DHT22;65929;49.062;10.338;2023-12-28T00:37:02;0.40;88.00
76996;DHT22;65929;49.062;10.338;2023-12-28T00:38:03;0.40;88.00
76996;DHT22;65929;49.062;10.338;2023-12-28T00:39:04;0.40;88.30
76996;DHT22;65929;49.062;10.338;2023-12-28T00:40:06;0.40;88.20
76996;DHT22;65929;49.062;10.338;2023-12-28T00:41:07;0.30;88.30
76996;DHT22;65929;49.062;10.338;2023-12-28T00:42:08;0.30;88.50
76996;DHT22;65929;49.062;10.338;2023-12-28T00:43:09;0.30;88.40
76996;DHT22;65929;49.062;10.338;2023-12-28T00:44:10;0.20;88.30
76996;DHT22;65929;49.062;10.338;2023-12-28T00:45:11;0.20;88.30
76996;DHT22;65929;49.062;10.338;2023-12-28T00:46:12;0.20;88.70
76996;DHT22;65929;49.062;10.338;2023-12-28T00:47:13;0.20;88.80
76996;DHT22;65929;49.062;10.338;2023-12-28T00:48:14;0.20;88.70
76996;DHT22;65929;49.062;10.338;2023-12-28T00:49:15;0.20;88.60
76996;DHT22;65929;49.062;10.338;2023-12-28T00:50:16;0.20;88.90
76996;DHT22;65929;49.062;10.338;2023-12-28T00:51:19;0.30;88.90
76996;DHT22;65929;49.062;10.338;2023-12-28T00:52:23;0.30;88.70
76996;DHT22;65929;49.062;10.338;2023-12-28T00:53:24;0.30;88.60
76996;DHT22;65929;49.062;10.338;2023-12-28T00:54:28;0.30;88.70
76996;DHT22;65929;49.062;10.338;2023-12-28T00:55:29;0.30;88.70
76996;DHT22;65929;49.062;10.338;2023-12-28T00:56:30;0.30;88.60
76996;DHT22;65929;49.062;10.338;2023-12-28T00:57:31;0.40;88.60
76996;DHT22;65929;49.062;10.338;2023-12-28T00:58:31;0.40;88.50
76996;DHT22;65929;49.062;10.338;2023-12-28T00:59:32;0.40;88.40
76996;DHT22;65929;49.062;10.338;2023-12-28T01:00:33;0.40;88.30
76996;DHT22;65929;49.062;10.338;2023-12-28T01:01:34;0.40;88.10
76996;DHT22;65929;49.062;10.338;2023-12-28T01:02:35;0.30;88.20
76996;DHT22;65929;49.062;10.338;2023-12-28T01:03:36;0.30;88.20
76996;DHT22;65929;49.062;10.338;2023-12-28T01:04:37;0.30;88.20
76996;DHT22;65929;49.062;10.338;2023-12-28T01:05:38;0.40;88.00
76996;DHT22;65929;49.062;10.338;2023-12-28T01:06:41;0.40;87.80
76996;DHT22;65929;49.062;10.338;2023-12-28T01:07:41;0.40;87.60
76996;DHT22;65929;49.062;10.338;2023-12-28T01:08:42;0.40;87.30
76996;DHT22;65929;49.062;10.338;2023-12-28T01:09:43;0.40;87.40
76996;DHT22;65929;49.062;10.338;2023-12-28T01:10:44;0.40;87.40
76996;DHT22;65929;49.062;10.338;2023-12-28T01:11:45;0.40;87.30
76996;DHT22;65929;49.062;10.338;2023-12-28T01:12:46;0.30;87.20
76996;DHT22;65929;49.062;10.338;2023-12-28T01:13:47;0.30;87.20
76996;DHT22;65929;49.062;10.338;2023-12-28T01:14:48;0.30;87.20
76996;DHT22;65929;49.062;10.338;2023-12-28T01:15:49;0.30;87.10
76996;DHT22;65929;49.062;10.338;2023-12-28T01:16:50;0.30;87.00
76996;DHT22;65929;49.062;10.338;2023-12-28T01:17:51;0.30;87.00
76996;DHT22;65929;49.062;10.338;2023-12-28T01:18:51;0.20;87.00
76996;DHT22;65929;49.062;10.338;2023-12-28T01:19:52;0.20;87.20
76996;DHT22;65929;49.062;10.338;2023-12-28T01:20:55;0.20;87.10
76996;DHT22;65929;49.062;10.338;2023-12-28T01:21:57;0.20;87.20
76996;DHT22;65929;49.062;10.338;2023-12-28T01:22:58;0.20;87.30
76996;DHT22;65929;49.062;10.338;2023-12-28T01:23:58;0.20;87.30
76996;DHT22;65929;49.062;10.338;2023-12-28T01:24:59;0.20;87.20
76996;DHT22;65929;49.062;10.338;2023-12-28T01:26:00;0.30;86.90
76996;DHT22;65929;49.062;10.338;2023-12-28T01:27:04;0.40;86.50
76996;DHT22;65929;49.062;10.338;2023-12-28T01:28:08;0.40;86.10
76996;DHT22;65929;49.062;10.338;2023-12-28T01:29:10;0.50;85.60
76996;DHT22;65929;49.062;10.338;2023-12-28T01:30:11;0.60;85.00
76996;DHT22;65929;49.062;10.338;2023-12-28T01:31:12;0.60;84.50
76996;DHT22;65929;49.062;10.338;2023-12-28T01:32:13;0.60;84.10
76996;DHT22;65929;49.062;10.338;2023-12-28T01:33:14;0.70;83.80
76996;DHT22;65929;49.062;10.338;2023-12-28T01:34:15;0.80;83.50
76996;DHT22;65929;49.062;10.338;2023-12-28T01:35:16;0.80;83.20
76996;DHT22;65929;49.062;10.338;2023-12-28T01:36:17;0.80;82.60
76996;DHT22;65929;49.062;10.338;2023-12-28T01:37:20;1.00;82.10
76996;DHT22;65929;49.062;10.338;2023-12-28T01:38:21;1.00;81.70
76996;DHT22;65929;49.062;10.338;2023-12-28T01:39:22;1.00;81.40
76996;DHT22;65929;49.062;10.338;2023-12-28T01:40:22;1.10;80.90
76996;DHT22;65929;49.062;10.338;2023-12-28T01:41:23;1.10;80.70
76996;DHT22;65929;49.062;10.338;2023-12-28T01:42:24;1.10;80.40
76996;DHT22;65929;49.062;10.338;2023-12-28T01:43:25;1.20;80.20
76996;DHT22;65929;49.062;10.338;2023-12-28T01:44:26;1.20;80.00
76996;DHT22;65929;49.062;10.338;2023-12-28T01:45:27;1.20;79.60
76996;DHT22;65929;49.062;10.338;2023-12-28T01:46:28;1.40;79.10
76996;DHT22;65929;49.062;10.338;2023-12-28T01:47:29;1.40;78.70
76996;DHT22;65929;49.062;10.338;2023-12-28T01:48:30;1.40;78.60
76996;DHT22;65929;49.062;10.338;2023-12-28T01:49:31;1.40;78.40
76996;DHT22;65929;49.062;10.338;2023-12-28T01:50:33;1.50;78.00
76996;DHT22;65929;49.062;10.338;2023-12-28T01:51:34;1.50;77.90
76996;DHT22;65929;49.062;10.338;2023-12-28T01:52:37;1.50;77.90
76996;DHT22;65929;49.062;10.338;2023-12-28T01:53:38;1.50;77.80
76996;DHT22;65929;49.062;10.338;2023-12-28T01:54:39;1.50;77.50
76996;DHT22;65929;49.062;10.338;2023-12-28T01:55:40;1.60;77.40
76996;DHT22;65929;49.062;10.338;2023-12-28T01:56:42;1.60;77.40
76996;DHT22;65929;49.062;10.338;2023-12-28T01:57:45;1.60;77.00
76996;DHT22;65929;49.062;10.338;2023-12-28T01:58:46;1.60;76.80
76996;DHT22;65929;49.062;10.338;2023-12-28T01:59:49;1.60;76.50
76996;DHT22;65929;49.062;10.338;2023-12-28T02:00:55;1.60;76.20
76996;DHT22;65929;49.062;10.338;2023-12-28T02:01:56;1.70;75.90
76996;DHT22;65929;49.062;10.338;2023-12-28T02:02:58;1.70;75.80
76996;DHT22;65929;49.062;10.338;2023-12-28T02:03:59;1.80;75.40
76996;DHT22;65929;49.062;10.338;2023-12-28T02:05:01;1.80;75.00
76996;DHT22;65929;49.062;10.338;2023-12-28T02:06:03;1.90;74.80
76996;DHT22;65929;49.062;10.338;2023-12-28T02:07:05;1.90;74.60
76996;DHT22;65929;49.062;10.338;2023-12-28T02:08:08;1.90;73.90
76996;DHT22;65929;49.062;10.338;2023-12-28T02:09:09;2.10;73.30
76996;DHT22;65929;49.062;10.338;2023-12-28T02:10:10;2.20;71.20
76996;DHT22;65929;49.062;10.338;2023-12-28T02:11:11;2.40;71.40
76996;DHT22;65929;49.062;10.338;2023-12-28T02:12:12;2.50;70.80
76996;DHT22;65929;49.062;10.338;2023-12-28T02:13:13;2.60;70.50
76996;DHT22;65929;49.062;10.338;2023-12-28T02:14:15;2.70;69.80
76996;DHT22;65929;49.062;10.338;2023-12-28T02:15:16;2.80;69.80
76996;DHT22;65929;49.062;10.338;2023-12-28T02:16:21;2.90;69.00
76996;DHT22;65929;49.062;10.338;2023-12-28T02:17:30;3.00;68.10
76996;DHT22;65929;49.062;10.338;2023-12-28T02:18:41;3.20;66.50
76996;DHT22;65929;49.062;10.338;2023-12-28T02:19:49;3.40;66.10
76996;DHT22;65929;49.062;10.338;2023-12-28T02:20:51;3.60;65.20
76996;DHT22;65929;49.062;10.338;2023-12-28T02:21:52;3.60;64.60
76996;DHT22;65929;49.062;10.338;2023-12-28T02:22:55;3.70;63.70
76996;DHT22;65929;49.062;10.338;2023-12-28T02:23:58;3.90;63.00
76996;DHT22;65929;49.062;10.338;2023-12-28T02:25:05;4.10;62.10
76996;DHT22;65929;49.062;10.338;2023-12-28T02:26:08;4.30;61.10
76996;DHT22;65929;49.062;10.338;2023-12-28T02:27:09;4.50;60.50
76996;DHT22;65929;49.062;10.338;2023-12-28T02:28:10;4.50;60.50
76996;DHT22;65929;49.062;10.338;2023-12-28T02:29:11;4.70;59.70
76996;DHT22;65929;49.062;10.338;2023-12-28T02:30:14;4.70;59.60
76996;DHT22;65929;49.062;10.338;2023-12-28T02:31:21;4.80;59.00
76996;DHT22;65929;49.062;10.338;2023-12-28T02:32:47;4.90;58.70
76996;DHT22;65929;49.062;10.338;2023-12-28T02:33:57;5.00;57.50
76996;DHT22;65929;49.062;10.338;2023-12-28T02:35:04;5.10;57.30
76996;DHT22;65929;49.062;10.338;2023-12-28T02:36:09;5.20;57.10
76996;DHT22;65929;49.062;10.338;2023-12-28T02:37:12;5.30;57.00
76996;DHT22;65929;49.062;10.338;2023-12-28T02:38:14;5.30;56.70
76996;DHT22;65929;49.062;10.338;2023-12-28T02:39:17;5.40;56.00
76996;DHT22;65929;49.062;10.338;2023-12-28T02:40:21;5.50;56.10
76996;DHT22;65929;49.062;10.338;2023-12-28T02:41:23;5.50;56.10
76996;DHT22;65929;49.062;10.338;2023-12-28T02:42:25;5.50;56.20
76996;DHT22;65929;49.062;10.338;2023-12-28T02:43:26;5.50;56.00
76996;DHT22;65929;49.062;10.338;2023-12-28T02:44:27;5.50;55.90
76996;DHT22;65929;49.062;10.338;2023-12-28T02:45:28;5.60;55.70
76996;DHT22;65929;49.062;10.338;2023-12-28T02:46:29;5.60;55.80
76996;DHT22;65929;49.062;10.338;2023-12-28T02:47:30;5.60;55.50
76996;DHT22;65929;49.062;10.338;2023-12-28T02:48:30;5.60;56.10
76996;DHT22;65929;49.062;10.338;2023-12-28T02:49:31;5.50;55.70
76996;DHT22;65929;49.062;10.338;2023-12-28T02:50:32;5.50;55.80
76996;DHT22;65929;49.062;10.338;2023-12-28T02:51:33;5.50;55.60
76996;DHT22;65929;49.062;10.338;2023-12-28T02:52:36;5.50;56.00
76996;DHT22;65929;49.062;10.338;2023-12-28T02:53:37;5.50;56.00
76996;DHT22;65929;49.062;10.338;2023-12-28T02:54:38;5.50;55.70
76996;DHT22;65929;49.062;10.338;2023-12-28T02:55:40;5.50;55.80
76996;DHT22;65929;49.062;10.338;2023-12-28T02:56:41;5.60;55.50
76996;DHT22;65929;49.062;10.338;2023-12-28T02:57:43;5.60;55.50
76996;DHT22;65929;49.062;10.338;2023-12-28T02:58:44;5.60;55.60
76996;DHT22;65929;49.062;10.338;2023-12-28T02:59:45;5.70;55.50
76996;DHT22;65929;49.062;10.338;2023-12-28T03:00:46;5.60;56.10
76996;DHT22;65929;49.062;10.338;2023-12-28T03:01:49;5.60;56.00
76996;DHT22;65929;49.062;10.338;2023-12-28T03:02:50;5.50;56.20
76996;DHT22;65929;49.062;10.338;2023-12-28T03:03:51;5.50;56.20
76996;DHT22;65929;49.062;10.338;2023-12-28T03:04:52;5.50;56.50
76996;DHT22;65929;49.062;10.338;2023-12-28T03:05:53;5.50;56.20
76996;DHT22;65929;49.062;10.338;2023-12-28T03:06:54;5.50;56.30
76996;DHT22;65929;49.062;10.338;2023-12-28T03:07:54;5.40;56.70
76996;DHT22;65929;49.062;10.338;2023-12-28T03:08:56;5.50;56.10
76996;DHT22;65929;49.062;10.338;2023-12-28T03:09:57;5.50;56.40
76996;DHT22;65929;49.062;10.338;2023-12-28T03:10:59;5.40;56.30
76996;DHT22;65929;49.062;10.338;2023-12-28T03:12:00;5.50;56.70
76996;DHT22;65929;49.062;10.338;2023-12-28T03:13:01;5.50;56.70
76996;DHT22;65929;49.062;10.338;2023-12-28T03:14:02;5.50;56.80
76996;DHT22;65929;49.062;10.338;2023-12-28T03:15:04;5.50;56.80
76996;DHT22;65929;49.062;10.338;2023-12-28T03:16:05;5.50;56.40
76996;DHT22;65929;49.062;10.338;2023-12-28T03:17:06;5.50;56.60
76996;DHT22;65929;49.062;10.338;2023-12-28T03:18:07;5.60;56.20
76996;DHT22;65929;49.062;10.338;2023-12-28T03:19:08;5.60;56.10
76996;DHT22;65929;49.062;10.338;2023-12-28T03:20:10;5.70;56.00
76996;DHT22;65929;49.062;10.338;2023-12-28T03:21:11;5.70;56.20
76996;DHT22;65929;49.062;10.338;2023-12-28T03:22:12;5.60;56.30
76996;DHT22;65929;49.062;10.338;2023-12-28T03:23:13;5.60;56.30
76996;DHT22;65929;49.062;10.338;2023-12-28T03:24:14;5.50;56.30
76996;DHT22;65929;49.062;10.338;2023-12-28T03:25:15;5.50;56.10
76996;DHT22;65929;49.062;10.338;2023-12-28T03:26:17;5.50;56.50
76996;DHT22;65929;49.062;10.338;2023-12-28T03:27:18;5.50;55.70
76996;DHT22;65929;49.062;10.338;2023-12-28T03:28:19;5.50;56.00
76996;DHT22;65929;49.062;10.338;2023-12-28T03:29:20;5.50;56.00
76996;DHT22;65929;49.062;10.338;2023-12-28T03:30:21;5.50;56.10
76996;DHT22;65929;49.062;10.338;2023-12-28T03:31:22;5.50;56.20
76996;DHT22;65929;49.062;10.338;2023-12-28T03:32:23;5.50;56.20
76996;DHT22;65929;49.062;10.338;2023-12-28T03:33:24;5.50;56.30
76996;DHT22;65929;49.062;10.338;2023-12-28T03:34:25;5.50;56.30
76996;DHT22;65929;49.062;10.338;2023-12-28T03:35:30;5.50;56.50
76996;DHT22;65929;49.062;10.338;2023-12-28T03:36:31;5.50;56.40
76996;DHT22;65929;49.062;10.338;2023-12-28T03:37:32;5.50;56.40
76996;DHT22;65929;49.062;10.338;2023-12-28T03:38:33;5.40;56.50
76996;DHT22;65929;49.062;10.338;2023-12-28T03:39:34;5.40;56.60
76996;DHT22;65929;49.062;10.338;2023-12-28T03:40:35;5.40;56.50
76996;DHT22;65929;49.062;10.338;2023-12-28T03:41:37;5.40;56.40
76996;DHT22;65929;49.062;10.338;2023-12-28T03:42:38;5.50;56.50
76996;DHT22;65929;49.062;10.338;2023-12-28T03:43:39;5.50;56.40
76996;DHT22;65929;49.062;10.338;2023-12-28T03:44:40;5.50;56.60
76996;DHT22;65929;49.062;10.338;2023-12-28T03:45:41;5.50;56.50
76996;DHT22;65929;49.062;10.338;2023-12-28T03:46:42;5.50;56.60
76996;DHT22;65929;49.062;10.338;2023-12-28T03:47:44;5.40;56.80
76996;DHT22;65929;49.062;10.338;2023-12-28T03:48:45;5.40;56.90
76996;DHT22;65929;49.062;10.338;2023-12-28T03:49:45;5.30;56.80
76996;DHT22;65929;49.062;10.338;2023-12-28T03:50:46;5.40;56.30
76996;DHT22;65929;49.062;10.338;2023-12-28T03:51:49;5.40;56.20
76996;DHT22;65929;49.062;10.338;2023-12-28T03:52:50;5.50;56.20
76996;DHT22;65929;49.062;10.338;2023-12-28T03:53:51;5.50;56.10
76996;DHT22;65929;49.062;10.338;2023-12-28T03:54:51;5.50;56.10
76996;DHT22;65929;49.062;10.338;2023-12-28T03:55:52;5.50;56.00
76996;DHT22;65929;49.062;10.338;2023-12-28T03:56:55;5.60;56.00
76996;DHT22;65929;49.062;10.338;2023-12-28T03:57:56;5.60;56.00
76996;DHT22;65929;49.062;10.338;2023-12-28T03:58:56;5.60;56.10
76996;DHT22;65929;49.062;10.338;2023-12-28T03:59:57;5.60;56.00
76996;DHT22;65929;49.062;10.338;2023-12-28T04:00:59;5.50;56.20
76996;DHT22;65929;49.062;10.338;2023-12-28T04:02:00;5.50;56.30
76996;DHT22;65929;49.062;10.338;2023-12-28T04:03:01;5.50;56.20
76996;DHT22;65929;49.062;10.338;2023-12-28T04:04:02;5.50;56.20
76996;DHT22;65929;49.062;10.338;2023-12-28T04:05:03;5.50;56.10
76996;DHT22;65929;49.062;10.338;2023-12-28T04:06:05;5.50;55.80
76996;DHT22;65929;49.062;10.338;2023-12-28T04:07:06;5.50;55.70
76996;DHT22;65929;49.062;10.338;2023-12-28T04:08:09;5.60;55.50
76996;DHT22;65929;49.062;10.338;2023-12-28T04:09:11;5.60;56.30
76996;DHT22;65929;49.062;10.338;2023-12-28T04:10:12;5.60;55.70
76996;DHT22;65929;49.062;10.338;2023-12-28T04:11:13;5.60;55.70
76996;DHT22;65929;49.062;10.338;2023-12-28T04:12:15;5.60;56.40
76996;DHT22;65929;49.062;10.338;2023-12-28T04:13:16;5.60;55.80
76996;DHT22;65929;49.062;10.338;2023-12-28T04:14:17;5.60;56.00
76996;DHT22;65929;49.062;10.338;2023-12-28T04:15:18;5.60;56.20
76996;DHT22;65929;49.062;10.338;2023-12-28T04:16:19;5.60;55.60
76996;DHT22;65929;49.062;10.338;2023-12-28T04:17:20;5.60;55.50
76996;DHT22;65929;49.062;10.338;2023-12-28T04:18:21;5.60;56.40
76996;DHT22;65929;49.062;10.338;2023-12-28T04:19:22;5.60;56.50
76996;DHT22;65929;49.062;10.338;2023-12-28T04:20:23;5.60;57.10
76996;DHT22;65929;49.062;10.338;2023-12-28T04:21:24;5.50;57.20
76996;DHT22;65929;49.062;10.338;2023-12-28T04:22:25;5.40;58.20
76996;DHT22;65929;49.062;10.338;2023-12-28T04:23:26;5.30;58.30
76996;DHT22;65929;49.062;10.338;2023-12-28T04:24:27;5.20;58.60
76996;DHT22;65929;49.062;10.338;2023-12-28T04:25:28;5.10;58.90
76996;DHT22;65929;49.062;10.338;2023-12-28T04:26:28;5.00;58.70
76996;DHT22;65929;49.062;10.338;2023-12-28T04:27:32;5.10;58.60
76996;DHT22;65929;49.062;10.338;2023-12-28T04:28:33;5.00;59.10
76996;DHT22;65929;49.062;10.338;2023-12-28T04:29:35;5.00;58.70
76996;DHT22;65929;49.062;10.338;2023-12-28T04:30:36;5.00;58.40
76996;DHT22;65929;49.062;10.338;2023-12-28T04:31:40;5.10;58.50
76996;DHT22;65929;49.062;10.338;2023-12-28T04:32:41;5.10;58.90
76996;DHT22;65929;49.062;10.338;2023-12-28T04:33:42;5.10;59.50
76996;DHT22;65929;49.062;10.338;2023-12-28T04:34:43;5.00;59.90
76996;DHT22;65929;49.062;10.338;2023-12-28T04:35:44;5.00;60.00
76996;DHT22;65929;49.062;10.338;2023-12-28T04:36:45;4.90;60.10
76996;DHT22;65929;49.062;10.338;2023-12-28T04:37:47;4.90;60.20
76996;DHT22;65929;49.062;10.338;2023-12-28T04:38:48;4.90;61.00
76996;DHT22;65929;49.062;10.338;2023-12-28T04:39:49;4.90;60.50
76996;DHT22;65929;49.062;10.338;2023-12-28T04:40:49;4.90;60.30
76996;DHT22;65929;49.062;10.338;2023-12-28T04:41:50;5.00;59.50
76996;DHT22;65929;49.062;10.338;2023-12-28T04:42:53;5.10;59.80
76996;DHT22;65929;49.062;10.338;2023-12-28T04:43:54;5.20;58.50
76996;DHT22;65929;49.062;10.338;2023-12-28T04:44:54;5.30;58.20
76996;DHT22;65929;49.062;10.338;2023-12-28T04:45:55;5.50;57.50
76996;DHT22;65929;49.062;10.338;2023-12-28T04:46:56;5.60;57.20
76996;DHT22;65929;49.062;10.338;2023-12-28T04:47:57;5.70;57.10
76996;DHT22;65929;49.062;10.338;2023-12-28T04:48:58;5.70;56.70
76996;DHT22;65929;49.062;10.338;2023-12-28T04:49:59;5.80;56.30
76996;DHT22;65929;49.062;10.338;2023-12-28T04:51:02;5.80;56.20
76996;DHT22;65929;49.062;10.338;2023-12-28T04:52:04;5.90;55.90
76996;DHT22;65929;49.062;10.338;2023-12-28T04:53:05;5.90;55.90
76996;DHT22;65929;49.062;10.338;2023-12-28T04:54:05;6.00;55.80
76996;DHT22;65929;49.062;10.338;2023-12-28T04:55:07;6.00;55.50
76996;DHT22;65929;49.062;10.338;2023-12-28T04:56:08;6.00;55.40
76996;DHT22;65929;49.062;10.338;2023-12-28T04:57:08;6.00;55.10
76996;DHT22;65929;49.062;10.338;2023-12-28T04:58:11;6.10;55.40
76996;DHT22;65929;49.062;10.338;2023-12-28T04:59:13;6.10;55.00
76996;DHT22;65929;49.062;10.338;2023-12-28T05:00:15;6.10;55.10
76996;DHT22;65929;49.062;10.338;2023-12-28T05:01:15;6.10;54.90
76996;DHT22;65929;49.062;10.338;2023-12-28T05:02:16;6.10;55.00
76996;DHT22;65929;49.062;10.338;2023-12-28T05:03:17;6.20;54.80
76996;DHT22;65929;49.062;10.338;2023-12-28T05:04:18;6.20;55.00
76996;DHT22;65929;49.062;10.338;2023-12-28T05:05:19;6.20;54.90
76996;DHT22;65929;49.062;10.338;2023-12-28T05:06:20;6.20;55.00
76996;DHT22;65929;49.062;10.338;2023-12-28T05:07:21;6.20;54.90
76996;DHT22;65929;49.062;10.338;2023-12-28T05:08:22;6.20;55.10
76996;DHT22;65929;49.062;10.338;2023-12-28T05:09:23;6.10;55.20
76996;DHT22;65929;49.062;10.338;2023-12-28T05:10:24;6.10;55.30
76996;DHT22;65929;49.062;10.338;2023-12-28T05:11:25;6.20;55.40
76996;DHT22;65929;49.062;10.338;2023-12-28T05:12:26;6.20;55.50
76996;DHT22;65929;49.062;10.338;2023-12-28T05:13:28;6.20;55.60
76996;DHT22;65929;49.062;10.338;2023-12-28T05:14:29;6.20;55.70
76996;DHT22;65929;49.062;10.338;2023-12-28T05:15:30;6.20;55.90
76996;DHT22;65929;49.062;10.338;2023-12-28T05:16:31;6.10;56.00
76996;DHT22;65929;49.062;10.338;2023-12-28T05:17:32;6.20;55.60
76996;DHT22;65929;49.062;10.338;2023-12-28T05:18:33;6.20;55.20
76996;DHT22;65929;49.062;10.338;2023-12-28T05:19:34;6.30;55.80
76996;DHT22;65929;49.062;10.338;2023-12-28T05:20:34;6.20;56.00
76996;DHT22;65929;49.062;10.338;2023-12-28T05:21:35;6.30;55.10
76996;DHT22;65929;49.062;10.338;2023-12-28T05:22:36;6.30;55.50
76996;DHT22;65929;49.062;10.338;2023-12-28T05:23:37;6.40;55.30
76996;DHT22;65929;49.062;10.338;2023-12-28T05:24:38;6.40;55.30
76996;DHT22;65929;49.062;10.338;2023-12-28T05:25:39;6.50;55.50
76996;DHT22;65929;49.062;10.338;2023-12-28T05:26:40;6.50;55.80
76996;DHT22;65929;49.062;10.338;2023-12-28T05:27:41;6.50;55.30
76996;DHT22;65929;49.062;10.338;2023-12-28T05:28:44;6.60;54.70
76996;DHT22;65929;49.062;10.338;2023-12-28T05:29:45;6.60;55.00
76996;DHT22;65929;49.062;10.338;2023-12-28T05:30:46;6.70;55.00
76996;DHT22;65929;49.062;10.338;2023-12-28T05:31:47;6.70;55.00
76996;DHT22;65929;49.062;10.338;2023-12-28T05:32:48;6.80;54.20
76996;DHT22;65929;49.062;10.338;2023-12-28T05:33:49;6.80;54.10
76996;DHT22;65929;49.062;10.338;2023-12-28T05:34:50;6.90;54.10
76996;DHT22;65929;49.062;10.338;2023-12-28T05:35:51;7.00;54.00
76996;DHT22;65929;49.062;10.338;2023-12-28T05:36:52;7.00;54.20
76996;DHT22;65929;49.062;10.338;2023-12-28T05:37:53;7.00;54.30
76996;DHT22;65929;49.062;10.338;2023-12-28T05:38:54;7.00;53.80
76996;DHT22;65929;49.062;10.338;2023-12-28T05:39:55;7.00;54.30
76996;DHT22;65929;49.062;10.338;2023-12-28T05:40:56;7.00;54.40
76996;DHT22;65929;49.062;10.338;2023-12-28T05:41:57;7.00;54.00
76996;DHT22;65929;49.062;10.338;2023-12-28T05:42:58;7.00;54.50
76996;DHT22;65929;49.062;10.338;2023-12-28T05:44:00;7.00;53.70
76996;DHT22;65929;49.062;10.338;2023-12-28T05:45:01;7.00;53.80
76996;DHT22;65929;49.062;10.338;2023-12-28T05:46:02;7.10;53.80
76996;DHT22;65929;49.062;10.338;2023-12-28T05:47:03;7.20;54.50
76996;DHT22;65929;49.062;10.338;2023-12-28T05:48:05;7.10;54.70
76996;DHT22;65929;49.062;10.338;2023-12-28T05:49:06;7.10;53.60
76996;DHT22;65929;49.062;10.338;2023-12-28T05:50:08;7.20;53.90
76996;DHT22;65929;49.062;10.338;2023-12-28T05:51:09;7.20;53.80
76996;DHT22;65929;49.062;10.338;2023-12-28T05:52:10;7.20;53.70
76996;DHT22;65929;49.062;10.338;2023-12-28T05:53:11;7.20;52.70
76996;DHT22;65929;49.062;10.338;2023-12-28T05:54:14;7.30;52.50
76996;DHT22;65929;49.062;10.338;2023-12-28T05:55:15;7.40;53.00
76996;DHT22;65929;49.062;10.338;2023-12-28T05:56:17;7.40;53.00
76996;DHT22;65929;49.062;10.338;2023-12-28T05:57:18;7.40;52.70
76996;DHT22;65929;49.062;10.338;2023-12-28T05:58:19;7.40;52.30
76996;DHT22;65929;49.062;10.338;2023-12-28T05:59:21;7.50;51.40
76996;DHT22;65929;49.062;10.338;2023-12-28T06:00:22;7.60;51.20
76996;DHT22;65929;49.062;10.338;2023-12-28T06:01:23;7.70;51.60
76996;DHT22;65929;49.062;10.338;2023-12-28T06:02:24;7.70;52.10
76996;DHT22;65929;49.062;10.338;2023-12-28T06:03:25;7.60;52.00
76996;DHT22;65929;49.062;10.338;2023-12-28T06:04:28;7.60;51.50
76996;DHT22;65929;49.062;10.338;2023-12-28T06:05:29;7.60;51.70
76996;DHT22;65929;49.062;10.338;2023-12-28T06:06:30;7.60;52.30
76996;DHT22;65929;49.062;10.338;2023-12-28T06:07:31;7.60;52.20
76996;DHT22;65929;49.062;10.338;2023-12-28T06:08:32;7.60;51.40
76996;DHT22;65929;49.062;10.338;2023-12-28T06:09:33;7.60;51.70
76996;DHT22;65929;49.062;10.338;2023-12-28T06:10:33;7.60;51.90
76996;DHT22;65929;49.062;10.338;2023-12-28T06:11:37;7.60;51.70
76996;DHT22;65929;49.062;10.338;2023-12-28T06:12:38;7.60;51.70
76996;DHT22;65929;49.062;10.338;2023-12-28T06:13:39;7.60;51.70
76996;DHT22;65929;49.062;10.338;2023-12-28T06:14:41;7.70;51.40
76996;DHT22;65929;49.062;10.338;2023-12-28T06:15:42;7.80;51.70
76996;DHT22;65929;49.062;10.338;2023-12-28T06:16:44;7.80;51.70
76996;DHT22;65929;49.062;10.338;2023-12-28T06:17:45;7.80;52.60
76996;DHT22;65929;49.062;10.338;2023-12-28T06:18:46;7.80;51.60
76996;DHT22;65929;49.062;10.338;2023-12-28T06:19:47;7.80;51.80
76996;DHT22;65929;49.062;10.338;2023-12-28T06:20:47;7.80;52.00
76996;DHT22;65929;49.062;10.338;2023-12-28T06:21:48;7.90;51.20
76996;DHT22;65929;49.062;10.338;2023-12-28T06:22:52;8.00;51.50
76996;DHT22;65929;49.062;10.338;2023-12-28T06:23:53;8.00;51.90
76996;DHT22;65929;49.062;10.338;2023-12-28T06:24:54;8.00;51.70
76996;DHT22;65929;49.062;10.338;2023-12-28T06:25:55;8.10;51.20
76996;DHT22;65929;49.062;10.338;2023-12-28T06:26:56;8.10;52.20
76996;DHT22;65929;49.062;10.338;2023-12-28T06:27:57;8.10;51.90
76996;DHT22;65929;49.062;10.338;2023-12-28T06:28:58;8.20;51.50